createdAt,value
2022-10-19T00:00:10.024Z,100775.28
2022-10-19T00:02:40.661Z,100764.91
2022-10-19T00:05:11.449Z,100797.06
2022-10-19T00:07:42.319Z,100789.81
2022-10-19T00:10:12.723Z,100803.28
2022-10-19T00:12:43.228Z,100789.38
2022-10-19T00:15:13.768Z,100801.84
2022-10-19T00:17:44.455Z,100807.44
2022-10-19T00:20:14.832Z,100796.91
2022-10-19T00:22:45.274Z,100806.41
2022-10-19T00:25:15.645Z,100811.00
2022-10-19T00:27:46.204Z,100807.63
2022-10-19T00:30:16.911Z,100813.03
2022-10-19T00:32:47.250Z,100819.69
2022-10-19T00:35:17.879Z,100815.53
2022-10-19T00:37:48.385Z,100832.16
2022-10-19T00:40:18.897Z,100833.84
2022-10-19T00:42:55.102Z,100834.66
2022-10-19T00:45:25.576Z,100834.66
2022-10-19T00:47:56.204Z,100843.59
2022-10-19T00:50:26.607Z,100841.72
2022-10-19T00:52:57.400Z,100845.25
2022-10-19T00:55:27.865Z,100849.63
2022-10-19T00:57:58.715Z,100843.38
2022-10-19T01:00:35.954Z,100829.91
2022-10-19T01:03:11.249Z,100839.50
2022-10-19T01:05:46.460Z,100841.78
2022-10-19T01:08:26.152Z,100854.19
2022-10-19T01:11:31.786Z,100857.38
2022-10-19T01:14:54.255Z,100864.47
2022-10-19T01:17:47.912Z,100856.75
2022-10-19T01:21:02.137Z,100857.19
2022-10-19T01:23:59.435Z,100869.84
2022-10-19T01:27:01.905Z,100774.59
2022-10-19T01:29:59.474Z,100867.94
2022-10-19T01:32:59.391Z,100872.97
2022-10-19T01:35:45.609Z,100868.38
2022-10-19T01:38:50.929Z,100877.56
2022-10-19T01:41:36.538Z,100883.78
2022-10-19T01:44:23.018Z,100781.25
2022-10-19T01:47:07.185Z,100803.22
2022-10-19T01:49:54.726Z,100807.16
2022-10-19T01:52:33.296Z,100886.88
2022-10-19T01:55:07.498Z,100884.59
2022-10-19T01:57:48.717Z,100890.22
2022-10-19T02:00:21.612Z,100892.28
2022-10-19T02:02:55.826Z,100797.44
2022-10-19T02:05:34.701Z,100821.09
2022-10-19T02:08:22.443Z,100899.63
2022-10-19T02:10:55.037Z,100909.97
2022-10-19T02:13:30.464Z,100869.47
2022-10-19T02:16:05.030Z,100914.94
2022-10-19T02:18:43.279Z,100910.78
2022-10-19T02:21:15.748Z,100917.84
2022-10-19T02:23:51.885Z,100913.31
2022-10-19T02:26:26.875Z,100914.13
2022-10-19T02:29:03.995Z,100907.03
2022-10-19T02:31:41.739Z,100915.16
2022-10-19T02:34:17.591Z,100921.63
2022-10-19T02:36:50.779Z,100916.00
2022-10-19T02:39:26.168Z,100918.72
2022-10-19T02:42:07.364Z,100915.19
2022-10-19T02:44:44.641Z,100922.84
2022-10-19T02:47:56.297Z,100927.88
2022-10-19T02:50:28.981Z,100924.13
2022-10-19T02:53:06.901Z,100920.13
2022-10-19T02:55:44.783Z,100921.19
2022-10-19T02:58:22.832Z,100921.19
2022-10-19T03:00:53.984Z,100907.03
2022-10-19T03:03:34.003Z,100892.09
2022-10-19T03:06:05.406Z,100906.00
2022-10-19T03:08:39.697Z,100912.00
2022-10-19T03:11:19.790Z,100898.31
2022-10-19T03:13:51.746Z,100909.53
2022-10-19T03:16:25.547Z,100904.94
2022-10-19T03:19:13.333Z,100902.47
2022-10-19T03:21:49.928Z,100901.19
2022-10-19T03:24:23.900Z,100894.75
2022-10-19T03:26:57.510Z,100880.41
2022-10-19T03:29:29.932Z,100886.63
2022-10-19T03:32:13.976Z,100879.97
2022-10-19T03:34:53.263Z,100870.41
2022-10-19T03:37:29.405Z,100876.84
2022-10-19T03:43:28.022Z,100804.84
2022-10-19T03:46:15.942Z,100867.09
2022-10-19T03:48:49.982Z,100858.97
2022-10-19T03:51:29.773Z,100778.44
2022-10-19T03:54:10.596Z,100774.06
2022-10-19T03:56:48.386Z,100845.00
2022-10-19T03:59:22.792Z,100843.13
2022-10-19T04:04:48.366Z,100831.72
2022-10-19T04:07:19.247Z,100829.84
2022-10-19T04:09:50.214Z,100832.94
2022-10-19T04:12:21.073Z,100824.59
2022-10-19T04:14:57.179Z,100795.34
2022-10-19T04:17:29.040Z,100818.78
2022-10-19T04:20:00.358Z,100769.63
2022-10-19T04:22:31.459Z,100813.38
2022-10-19T04:25:03.355Z,100805.44
2022-10-19T04:27:34.311Z,100809.19
2022-10-19T04:30:06.128Z,100809.19
2022-10-19T04:32:42.114Z,100798.38
2022-10-19T04:35:12.965Z,100786.94
2022-10-19T04:37:43.701Z,100796.69
2022-10-19T04:40:15.136Z,100787.50
2022-10-19T04:42:46.560Z,100778.19
2022-10-19T04:45:17.878Z,100782.09
2022-10-19T04:47:49.139Z,100763.84
2022-10-19T04:50:20.792Z,100777.31
2022-10-19T04:53:00.080Z,100747.81
2022-10-19T04:55:31.530Z,100757.34
2022-10-19T04:58:03.013Z,100750.91
2022-10-19T05:00:34.761Z,100750.91
2022-10-19T05:03:05.964Z,100746.31
2022-10-19T05:05:37.251Z,100737.78
2022-10-19T05:08:08.592Z,100743.16
2022-10-19T05:10:42.162Z,100730.91
2022-10-19T05:13:16.680Z,100639.91
2022-10-19T05:15:58.651Z,100585.84
2022-10-19T05:18:30.365Z,100734.59
2022-10-19T05:21:10.954Z,100736.47
2022-10-19T05:23:43.665Z,100716.66
2022-10-19T05:26:20.114Z,100729.97
2022-10-19T05:29:02.014Z,100732.06
2022-10-19T05:31:37.090Z,100726.00
2022-10-19T05:36:45.088Z,100700.78
2022-10-19T05:39:20.167Z,100697.06
2022-10-19T05:41:52.759Z,100686.00
2022-10-19T05:44:27.570Z,100694.13
2022-10-19T05:46:58.907Z,100655.91
2022-10-19T05:49:31.140Z,100673.69
2022-10-19T05:52:04.229Z,100664.50
2022-10-19T05:54:38.385Z,100664.50
2022-10-19T05:57:09.752Z,100660.78
2022-10-19T05:59:43.424Z,100659.72
2022-10-19T06:05:04.551Z,100654.06
2022-10-19T06:07:36.133Z,100649.81
2022-10-19T06:10:08.307Z,100645.41
2022-10-19T06:12:40.216Z,100641.97
2022-10-19T06:15:12.053Z,100650.69
2022-10-19T06:17:58.379Z,100644.81
2022-10-19T06:20:30.998Z,100644.81
2022-10-19T06:23:04.064Z,100620.59
2022-10-19T06:25:36.602Z,100630.25
2022-10-19T06:28:08.158Z,100631.44
2022-10-19T06:30:42.990Z,100634.56
2022-10-19T06:33:15.289Z,100619.44
2022-10-19T06:35:46.777Z,100623.94
2022-10-19T06:38:22.826Z,100618.91
2022-10-19T06:40:54.276Z,100552.50
2022-10-19T06:43:27.255Z,100615.97
2022-10-19T06:45:58.918Z,100604.69
2022-10-19T06:48:30.276Z,100613.84
2022-10-19T06:51:06.218Z,100602.56
2022-10-19T06:53:39.269Z,100520.84
2022-10-19T06:56:11.834Z,100598.41
2022-10-19T06:58:43.329Z,100601.72
2022-10-19T07:01:15.572Z,100607.13
2022-10-19T07:03:46.996Z,100618.31
2022-10-19T07:06:18.884Z,100618.31
2022-10-19T07:08:50.521Z,100613.72
2022-10-19T07:11:23.803Z,100534.91
2022-10-19T07:13:55.669Z,100575.22
2022-10-19T07:16:28.364Z,100609.53
2022-10-19T07:19:02.950Z,100573.13
2022-10-19T07:21:35.315Z,100598.59
2022-10-19T07:24:07.083Z,100590.69
2022-10-19T07:26:38.449Z,100587.41
2022-10-19T07:29:10.040Z,100594.00
2022-10-19T07:31:41.958Z,100579.84
2022-10-19T07:34:15.444Z,100582.25
2022-10-19T07:36:49.471Z,100592.63
2022-10-19T07:39:20.776Z,100575.34
2022-10-19T07:41:52.602Z,100572.03
2022-10-19T07:44:23.975Z,100563.06
2022-10-19T07:46:55.205Z,100567.81
2022-10-19T07:49:26.619Z,100570.06
2022-10-19T07:52:00.410Z,100561.78
2022-10-19T07:54:32.285Z,100577.47
2022-10-19T07:57:03.655Z,100571.03
2022-10-19T07:59:36.204Z,100571.84
2022-10-19T08:02:09.250Z,100569.13
2022-10-19T08:05:01.690Z,100571.16
2022-10-19T08:07:37.874Z,100563.03
2022-10-19T08:10:14.330Z,100580.47
2022-10-19T08:12:49.335Z,100576.47
2022-10-19T08:15:22.753Z,100577.91
2022-10-19T08:17:53.908Z,100583.16
2022-10-19T08:20:30.308Z,100585.28
2022-10-19T08:23:03.508Z,100586.22
2022-10-19T08:25:34.897Z,100592.19
2022-10-19T08:28:06.338Z,100596.81
2022-10-19T08:30:39.275Z,100584.69
2022-10-19T08:33:13.753Z,100584.47
2022-10-19T08:35:45.001Z,100601.28
2022-10-19T08:38:16.195Z,100601.28
2022-10-19T08:40:49.111Z,100592.13
2022-10-19T08:43:37.446Z,100590.56
2022-10-19T08:46:15.489Z,100592.13
2022-10-19T08:48:48.059Z,100589.56
2022-10-19T08:51:20.208Z,100590.59
2022-10-19T08:53:56.374Z,100598.72
2022-10-19T08:56:50.522Z,100509.56
2022-10-19T08:59:42.429Z,100599.31
2022-10-19T09:02:29.639Z,100520.41
2022-10-19T09:05:16.033Z,100562.66
2022-10-19T09:07:49.022Z,100608.28
2022-10-19T09:10:22.538Z,100613.69
2022-10-19T09:13:02.346Z,100617.13
2022-10-19T09:15:44.070Z,100623.72
2022-10-19T09:18:21.266Z,100628.53
2022-10-19T09:21:03.011Z,100557.66
2022-10-19T09:23:41.019Z,100640.59
2022-10-19T09:26:24.519Z,100637.59
2022-10-19T09:29:05.439Z,100647.53
2022-10-19T09:31:40.824Z,100592.47
2022-10-19T09:34:38.383Z,100634.00
2022-10-19T09:37:21.771Z,100652.38
2022-10-19T09:39:55.958Z,100632.72
2022-10-19T09:42:38.163Z,100550.38
2022-10-19T09:45:27.906Z,100575.81
2022-10-19T09:48:07.145Z,100666.81
2022-10-19T09:50:46.267Z,100674.38
2022-10-19T09:53:22.990Z,100666.97
2022-10-19T09:56:28.278Z,100668.03
2022-10-19T09:59:01.101Z,100580.91
2022-10-19T10:01:43.517Z,100602.44
2022-10-19T10:04:20.224Z,100604.13
2022-10-19T10:06:52.176Z,100625.47
2022-10-19T10:09:30.566Z,100696.91
2022-10-19T10:12:02.217Z,100685.03
2022-10-19T10:14:41.342Z,100699.03
2022-10-19T10:17:25.018Z,100620.06
2022-10-19T10:20:02.306Z,100698.06
2022-10-19T10:22:38.032Z,100726.81
2022-10-19T10:25:20.489Z,100672.13
2022-10-19T10:28:18.765Z,100562.50
2022-10-19T10:30:55.458Z,100726.53
2022-10-19T10:33:45.751Z,100708.69
2022-10-19T10:36:17.383Z,100730.22
2022-10-19T10:38:54.106Z,100728.53
2022-10-19T10:41:26.631Z,100733.94
2022-10-19T10:44:04.832Z,100738.19
2022-10-19T10:47:01.139Z,100653.91
2022-10-19T10:49:38.153Z,100638.66
2022-10-19T10:52:14.636Z,100733.94
2022-10-19T10:55:07.078Z,100730.19
2022-10-19T10:57:43.733Z,100707.44
2022-10-19T11:00:21.220Z,100737.56
2022-10-19T11:03:04.920Z,100730.97
2022-10-19T11:05:42.794Z,100743.22
2022-10-19T11:08:26.006Z,100728.38
2022-10-19T11:11:18.825Z,100705.16
2022-10-19T11:13:52.782Z,100739.47
2022-10-19T11:16:45.836Z,100659.53
2022-10-19T11:19:34.954Z,100754.09
2022-10-19T11:22:21.256Z,100752.00
2022-10-19T11:25:13.121Z,100753.22
2022-10-19T11:27:54.720Z,100763.47
2022-10-19T11:30:27.585Z,100763.63
2022-10-19T11:33:16.898Z,100764.22
2022-10-19T11:35:59.645Z,100781.06
2022-10-19T11:38:54.746Z,100769.47
2022-10-19T11:41:45.723Z,100669.59
2022-10-19T11:44:25.597Z,100784.75
2022-10-19T11:47:21.488Z,100642.22
2022-10-19T11:50:14.866Z,100792.22
2022-10-19T11:53:18.399Z,100793.25
2022-10-19T11:56:17.242Z,100797.31
2022-10-19T11:58:59.872Z,100794.94
2022-10-19T12:01:45.116Z,100810.03
2022-10-19T12:04:32.451Z,100815.91
2022-10-19T12:07:30.932Z,100821.25
2022-10-19T12:10:27.005Z,100824.41
2022-10-19T12:13:12.319Z,100829.38
2022-10-19T12:15:55.692Z,100827.75
2022-10-19T12:18:55.929Z,100800.84
2022-10-19T12:21:33.766Z,100832.91
2022-10-19T12:24:08.494Z,100773.66
2022-10-19T12:26:42.158Z,100840.66
2022-10-19T12:29:28.201Z,100843.66
2022-10-19T12:32:01.835Z,100856.09
2022-10-19T12:34:57.080Z,100844.56
2022-10-19T12:37:51.785Z,100856.13
2022-10-19T12:40:53.481Z,100850.47
2022-10-19T12:43:56.993Z,100862.50
2022-10-19T12:46:49.792Z,100871.41
2022-10-19T12:49:32.824Z,100884.91
2022-10-19T12:52:06.249Z,100892.78
2022-10-19T12:54:43.688Z,100899.06
2022-10-19T12:57:30.801Z,100875.59
2022-10-19T13:00:29.990Z,100912.22
2022-10-19T13:03:26.215Z,100833.41
2022-10-19T13:06:04.415Z,100837.38
2022-10-19T13:08:48.614Z,100926.22
2022-10-19T13:11:21.995Z,100926.03
2022-10-19T13:14:38.489Z,100935.25
2022-10-19T13:17:10.774Z,100923.59
2022-10-19T13:19:42.240Z,100929.00
2022-10-19T13:22:31.946Z,100947.31
2022-10-19T13:25:30.980Z,100948.78
2022-10-19T13:28:08.333Z,100943.13
2022-10-19T13:31:03.383Z,100949.59
2022-10-19T13:33:49.170Z,100907.41
2022-10-19T13:36:22.542Z,100956.44
2022-10-19T13:39:07.996Z,100960.59
2022-10-19T13:41:39.972Z,100961.88
2022-10-19T13:44:28.264Z,100959.16
2022-10-19T13:47:22.922Z,100960.66
2022-10-19T13:50:32.851Z,100959.44
2022-10-19T13:53:19.625Z,100966.50
2022-10-19T13:56:02.186Z,100951.94
2022-10-19T13:59:08.224Z,100977.13
2022-10-19T14:02:06.044Z,100975.25
2022-10-19T14:05:10.500Z,100975.25
2022-10-19T14:07:56.677Z,100983.94
2022-10-19T14:10:32.866Z,100949.84
2022-10-19T14:13:16.859Z,100946.34
2022-10-19T14:15:59.018Z,100894.84
2022-10-19T14:18:33.650Z,100987.28
2022-10-19T14:21:19.364Z,100921.22
2022-10-19T14:23:53.198Z,100982.72
2022-10-19T14:26:27.794Z,100909.22
2022-10-19T14:29:02.453Z,100992.34
2022-10-19T14:31:38.482Z,100885.94
2022-10-19T14:34:15.215Z,100990.28
2022-10-19T14:36:49.955Z,100997.78
2022-10-19T14:39:40.893Z,100946.84
2022-10-19T14:42:13.692Z,100966.22
2022-10-19T14:44:46.042Z,100996.38
2022-10-19T14:47:31.736Z,100984.13
2022-10-19T14:50:05.883Z,100989.91
2022-10-19T14:52:41.740Z,100988.00
2022-10-19T14:55:22.894Z,100846.06
2022-10-19T14:57:56.025Z,100910.25
2022-10-19T15:00:34.853Z,100910.88
2022-10-19T15:03:14.516Z,101001.13
2022-10-19T15:05:50.778Z,100999.25
2022-10-19T15:08:38.820Z,100992.81
2022-10-19T15:11:50.511Z,100983.84
2022-10-19T15:14:31.459Z,100985.94
2022-10-19T15:17:05.673Z,101000.47
2022-10-19T15:19:40.272Z,100989.91
2022-10-19T15:22:34.215Z,100978.25
2022-10-19T15:25:08.816Z,100987.38
2022-10-19T15:27:54.675Z,100989.47
2022-10-19T15:30:34.483Z,101002.78
2022-10-19T15:33:06.496Z,100993.19
2022-10-19T15:35:40.949Z,100984.47
2022-10-19T15:38:21.626Z,100975.53
2022-10-19T15:41:05.602Z,100971.59
2022-10-19T15:43:40.578Z,100883.03
2022-10-19T15:46:45.245Z,100946.41
2022-10-19T15:49:29.191Z,100974.72
2022-10-19T15:52:00.712Z,100976.16
2022-10-19T15:54:33.729Z,100966.38
2022-10-19T15:57:29.579Z,100977.78
2022-10-19T16:00:07.030Z,100981.50
2022-10-19T16:02:38.702Z,100984.03
2022-10-19T16:05:10.868Z,100973.16
2022-10-19T16:07:43.530Z,100975.06
2022-10-19T16:10:17.403Z,100964.41
2022-10-19T16:12:49.000Z,100972.59
2022-10-19T16:15:26.194Z,100957.81
2022-10-19T16:18:03.122Z,100885.06
2022-10-19T16:20:37.602Z,100964.88
2022-10-19T16:23:09.058Z,100963.63
2022-10-19T16:25:40.691Z,100952.19
2022-10-19T16:28:15.155Z,100968.22
2022-10-19T16:30:46.649Z,100968.44
2022-10-19T16:33:18.363Z,100970.13
2022-10-19T16:35:50.764Z,100914.41
2022-10-19T16:38:22.116Z,100952.88
2022-10-19T16:40:53.534Z,100954.53
2022-10-19T16:43:26.647Z,100943.13
2022-10-19T16:45:58.548Z,100945.41
2022-10-19T16:48:30.492Z,100922.94
2022-10-19T16:51:08.290Z,100938.34
2022-10-19T16:53:43.096Z,100927.53
2022-10-19T16:56:16.022Z,100899.25
2022-10-19T16:58:47.729Z,100900.91
2022-10-19T17:01:21.671Z,100902.38
2022-10-19T17:03:53.286Z,100907.78
2022-10-19T17:06:26.773Z,100903.41
2022-10-19T17:09:36.688Z,100819.09
2022-10-19T17:11:51.568Z,100878.91
2022-10-19T17:14:25.745Z,100885.31
2022-10-19T17:16:57.195Z,100870.59
2022-10-19T17:19:28.661Z,100861.88
2022-10-19T17:22:00.688Z,100871.00
2022-10-19T17:24:34.863Z,100844.00
2022-10-19T17:27:06.241Z,100873.06
2022-10-19T17:29:38.129Z,100864.75
2022-10-19T17:32:09.572Z,100867.69
2022-10-19T17:34:40.992Z,100867.25
2022-10-19T17:37:12.784Z,100872.03
2022-10-19T17:39:44.066Z,100871.81
2022-10-19T17:42:15.397Z,100870.16
2022-10-19T17:44:47.084Z,100874.72
2022-10-19T17:47:18.235Z,100872.03
2022-10-19T17:49:49.500Z,100869.75
2022-10-19T17:52:21.524Z,100855.63
2022-10-19T17:55:12.278Z,100850.63
2022-10-19T17:57:44.305Z,100841.28
2022-10-19T18:00:16.036Z,100851.06
2022-10-19T18:02:48.028Z,100825.28
2022-10-19T18:05:18.642Z,100848.03
2022-10-19T18:07:50.754Z,100845.44
2022-10-19T18:10:22.080Z,100849.38
2022-10-19T18:13:02.237Z,100851.47
2022-10-19T18:15:33.589Z,100852.28
2022-10-19T18:18:05.328Z,100854.53
2022-10-19T18:20:40.330Z,100850.19
2022-10-19T18:23:11.521Z,100844.81
2022-10-19T18:25:54.056Z,100848.75
2022-10-19T18:28:25.697Z,100849.38
2022-10-19T18:30:56.850Z,100853.94
2022-10-19T18:33:30.281Z,100848.53
2022-10-19T18:36:03.782Z,100824.84
2022-10-19T18:38:35.054Z,100841.88
2022-10-19T18:41:15.348Z,100851.84
2022-10-19T18:43:46.568Z,100839.41
2022-10-19T18:46:20.036Z,100835.25
2022-10-19T18:48:52.361Z,100839.59
2022-10-19T18:51:25.825Z,100840.66
2022-10-19T18:53:57.478Z,100835.25
2022-10-19T18:56:30.664Z,100817.34
2022-10-19T18:59:01.887Z,100823.97
2022-10-19T19:01:33.537Z,100827.94
2022-10-19T19:04:11.026Z,100833.53
2022-10-19T19:06:43.283Z,100820.69
2022-10-19T19:09:14.615Z,100828.44
2022-10-19T19:11:45.776Z,100826.91
2022-10-19T19:14:19.665Z,100815.47
2022-10-19T19:16:51.234Z,100825.63
2022-10-19T19:19:22.816Z,100825.84
2022-10-19T19:21:54.087Z,100818.78
2022-10-19T19:24:47.156Z,100810.69
2022-10-19T19:27:18.448Z,100819.81
2022-10-19T19:29:51.326Z,100820.41
2022-10-19T19:32:23.155Z,100821.06
2022-10-19T19:34:55.067Z,100816.72
2022-10-19T19:37:26.296Z,100814.41
2022-10-19T19:39:57.484Z,100818.13
2022-10-19T19:42:28.685Z,100812.09
2022-10-19T19:45:00.129Z,100825.81
2022-10-19T19:47:31.615Z,100811.50
2022-10-19T19:50:02.844Z,100819.59
2022-10-19T19:52:38.074Z,100823.53
2022-10-19T19:55:11.433Z,100819.78
2022-10-19T19:57:42.592Z,100821.88
2022-10-19T20:00:14.366Z,100821.03
2022-10-19T20:02:45.409Z,100815.47
2022-10-19T20:05:17.362Z,100797.97
2022-10-19T20:07:48.526Z,100825.16
2022-10-19T20:10:20.238Z,100825.16
2022-10-19T20:12:51.576Z,100825.16
2022-10-19T20:15:23.047Z,100828.91
2022-10-19T20:17:54.171Z,100811.22
2022-10-19T20:20:25.370Z,100809.34
2022-10-19T20:22:56.628Z,100821.84
2022-10-19T20:25:27.844Z,100824.53
2022-10-19T20:27:59.092Z,100821.84
2022-10-19T20:30:30.359Z,100820.19
2022-10-19T20:33:01.535Z,100794.22
2022-10-19T20:35:32.665Z,100811.47
2022-10-19T20:38:05.173Z,100789.22
2022-10-19T20:40:36.319Z,100804.81
2022-10-19T20:43:07.460Z,100815.19
2022-10-19T20:45:38.842Z,100810.22
2022-10-19T20:48:10.127Z,100809.34
2022-10-19T20:50:41.844Z,100802.72
2022-10-19T20:53:13.851Z,100803.56
2022-10-19T20:55:45.041Z,100804.59
2022-10-19T20:58:16.596Z,100788.59
2022-10-19T21:00:47.761Z,100812.69
2022-10-19T21:03:19.202Z,100809.16
2022-10-19T21:05:50.599Z,100806.47
2022-10-19T21:08:22.029Z,100751.13
2022-10-19T21:10:53.175Z,100806.00
2022-10-19T21:13:24.432Z,100806.41
2022-10-19T21:15:55.632Z,100801.44
2022-10-19T21:18:26.805Z,100801.44
2022-10-19T21:20:58.066Z,100803.50
2022-10-19T21:23:29.879Z,100811.22
2022-10-19T21:26:01.268Z,100803.50
2022-10-19T21:28:32.431Z,100804.09
2022-10-19T21:31:11.272Z,100741.31
2022-10-19T21:33:42.498Z,100820.31
2022-10-19T21:36:15.363Z,100741.91
2022-10-19T21:38:46.688Z,100816.75
2022-10-19T21:41:23.731Z,100733.56
2022-10-19T21:43:57.531Z,100723.19
2022-10-19T21:46:29.285Z,100810.88
2022-10-19T21:49:00.738Z,100826.47
2022-10-19T21:51:48.857Z,100831.72
2022-10-19T21:54:23.288Z,100807.13
2022-10-19T21:56:56.383Z,100792.19
2022-10-19T21:59:27.789Z,100831.88
2022-10-19T22:01:59.122Z,100827.88
2022-10-19T22:04:30.495Z,100813.97
2022-10-19T22:07:02.646Z,100830.81
2022-10-19T22:09:34.968Z,100828.75
2022-10-19T22:12:06.274Z,100832.03
2022-10-19T22:14:37.467Z,100845.94
2022-10-19T22:17:08.657Z,100848.63
2022-10-19T22:19:40.666Z,100854.03
2022-10-19T22:22:11.857Z,100857.75
2022-10-19T22:24:43.307Z,100851.53
2022-10-19T22:27:14.520Z,100855.66
2022-10-19T22:29:46.316Z,100836.53
2022-10-19T22:32:17.500Z,100866.03
2022-10-19T22:34:48.651Z,100861.69
2022-10-19T22:37:19.787Z,100865.41
2022-10-19T22:39:50.938Z,100869.75
2022-10-19T22:42:34.531Z,100871.56
2022-10-19T22:45:06.360Z,100875.56
2022-10-19T22:47:37.557Z,100873.91
2022-10-19T22:50:10.858Z,100879.88
2022-10-19T22:52:42.150Z,100876.34
2022-10-19T22:55:13.387Z,100887.75
2022-10-19T22:57:44.524Z,100888.78
2022-10-19T23:00:15.940Z,100899.16
2022-10-19T23:02:47.178Z,100886.16
2022-10-19T23:05:18.846Z,100868.34
2022-10-19T23:08:20.536Z,100901.78
2022-10-19T23:10:51.753Z,100894.16
2022-10-19T23:13:22.971Z,100896.22
2022-10-19T23:15:54.175Z,100909.16
2022-10-19T23:18:25.369Z,100896.13
2022-10-19T23:21:02.050Z,100914.25
2022-10-19T23:23:35.141Z,100911.78
2022-10-19T23:26:53.557Z,100915.59
2022-10-19T23:29:43.605Z,100891.09
2022-10-19T23:32:14.768Z,100917.72
2022-10-19T23:34:48.299Z,100921.28
2022-10-19T23:37:19.765Z,100909.41
2022-10-19T23:39:51.344Z,100936.13
2022-10-19T23:42:22.458Z,100909.84
2022-10-19T23:44:53.601Z,100931.91
2022-10-19T23:47:25.293Z,100928.38
2022-10-19T23:49:56.424Z,100936.31
2022-10-19T23:52:33.671Z,100933.22
2022-10-19T23:55:44.571Z,100946.72
2022-10-19T23:58:15.758Z,100928.69
